Windber, PA (15963)

2:13 AM EST on February 27, 2015 (GMT -0500)
Ashtola | Change Station
CLOSE
Current Station
Personal Weather Station
Location: Windber, PA
Elevation: 2085 ft
Nearby Weather Stations

Elev 2085 ft 40.20 °N, 78.80 °W | Updated 2 minutes ago

Overcast
Overcast
7.6 °F
Feels Like 8 °F
N
1.0
Wind Variable Wind from North
Gusts 1.0 mph

Today
High -- | Low -- °F
--% Chance of Precip.
Yesterday
High -- | Low -- °F
Precip. -- in
6:52 AM 6:04 PM
Waxing Gibbous, 66% visible
Pressure 30.20 in
Visibility 3.0 miles
Clouds Scattered Clouds 1400 ft
Overcast 9000 ft
Windchill 8 °F
Dew Point 4 °F
Humidity 87%
Rainfall 0.00 in
Snow Depth Not available.
UV 0 out of 12
Pollen .50 out of 12
Air Quality Not available.
Flu Activity Not available.
METAR KJST 270654Z AUTO 29007KT 3SM -SN BR SCT014 OVC090 M13/M16 A3008 RMK AO2 SLP227 P0000 T11331156

More Conditions Fewer Conditions

Pressure 30.20 in
Visibility 3.0 miles
Clouds Scattered Clouds 1400 ft
Overcast 9000 ft
Windchill 8 °F
Dew Point 4 °F
Humidity 87%
Rainfall 0.00 in
Snow Depth Not available.
UV 0 out of 12
Pollen .50 out of 12
Air Quality Not available.
Flu Activity Not available.
METAR KJST 270654Z AUTO 29007KT 3SM -SN BR SCT014 OVC090 M13/M16 A3008 RMK AO2 SLP227 P0000 T11331156

More Conditions Fewer Conditions

10-Day Weather Forecast

Almanac

Astronomy

Feb. 27, 2015 Rise Set
Actual Time
Civil Twilight
Nautical Twilight
Astronomical Twilight
Moon
Length of Visible Light
Length of Day
Tomorrow will be .
, % of the Moon is Illuminated

Today's Extremes

State Highs State Lows

Community

WunderPhotos

Upload Photos

1,800,646 photos uploaded!

WunderBlogs® & News

Nearby

Air Quality

  Air Quality AQ Index Pollutant
Not available.

Snow Depth

Station Depth Elevation

Earthquake Activity

City Distance Mag. Time & Date
Minimum magnitude displayed is 2.5.

Coastal Water Temperatures

Place Temperature

Nearby Weather Stations